Americus, Missouri
Current Conditions -  °F | °C
As of 9:35 PM on Thursday 18 Dec 2014 (Local Time) from KFYG Reporting Station
Overcast Overcast  
Wind Chill: 32°   Ceiling: 2300
Heat Index: 32°   Visibility: 8mi
Dew Point: 28°   Wind: 0mph
Humidity: 87%   Direction: NA
Pressure: 30.28"   Gusts: NA
Location:  38.7604°N, 91.5317°W
Report Text: KFYG 190335Z AUTO 00000KT 8SM OVC023 00/M02 A3028 RMK AO2
Loading
Personal Weather Stations






























Interactive Weather Map New forecast layout! Learn more

10-Day Weather Forecast

Advertisements
Track Severe Weather on mobile